Time;durP1;ratioP1;P1;durP2;ratioP2;P2;SDS_P1;SDS_P2;PMS_P1;PMS_P2;Temp;Humidity;BMP_temperature;BMP_pressure;BME280_temperature;BME280_humidity;BME280_pressure;Samples;Min_cycle;Max_cycle;Signal;HPM_P1;HPM_P2
2021/11/27 00:01:18;;;;;;;21.40;15.00;;;;;;;;;;6224567;28;20046;-66
2021/11/27 00:04:19;;;;;;;21.23;14.43;;;;;;;;;;6245355;28;20042;-66
2021/11/27 00:07:21;;;;;;;21.17;14.32;;;;;;;;;;6223316;28;20053;-66
2021/11/27 00:10:24;;;;;;;22.15;15.02;;;;;;;;;;6235374;28;20133;-66
2021/11/27 00:13:26;;;;;;;25.00;15.25;;;;;;;;;;6239614;28;20126;-66
2021/11/27 00:16:29;;;;;;;22.42;14.60;;;;;;;;;;6222379;28;20046;-66
2021/11/27 00:19:30;;;;;;;21.75;14.18;;;;;;;;;;6237352;28;20165;-66
2021/11/27 00:22:32;;;;;;;26.85;15.07;;;;;;;;;;6229580;28;20046;-66
2021/11/27 00:25:33;;;;;;;26.20;14.95;;;;;;;;;;6235948;28;20057;-66
2021/11/27 00:28:35;;;;;;;21.58;14.63;;;;;;;;;;6244098;28;20106;-66
2021/11/27 00:31:41;;;;;;;23.20;15.18;;;;;;;;;;6221461;28;20456;-66
2021/11/27 00:34:43;;;;;;;26.85;15.63;;;;;;;;;;6241047;28;20121;-66
2021/11/27 00:37:44;;;;;;;22.77;14.93;;;;;;;;;;6231153;28;20633;-66
2021/11/27 00:40:46;;;;;;;23.30;15.40;;;;;;;;;;6240555;28;22081;-66
2021/11/27 00:43:48;;;;;;;24.05;15.75;;;;;;;;;;6235949;28;20137;-66
2021/11/27 00:46:51;;;;;;;25.10;15.93;;;;;;;;;;6221118;28;20191;-66
2021/11/27 00:49:54;;;;;;;22.98;15.45;;;;;;;;;;6239280;28;20558;-66
2021/11/27 00:52:56;;;;;;;24.30;15.48;;;;;;;;;;6221528;28;20041;-66
2021/11/27 00:55:57;;;;;;;23.65;15.70;;;;;;;;;;6227457;28;20045;-65
2021/11/27 00:58:59;;;;;;;22.92;15.40;;;;;;;;;;6238681;28;20038;-65
2021/11/27 01:02:02;;;;;;;23.67;16.02;;;;;;;;;;6220334;28;20048;-66
2021/11/27 01:05:04;;;;;;;24.02;15.23;;;;;;;;;;6234069;28;20049;-66
2021/11/27 01:08:06;;;;;;;23.35;15.70;;;;;;;;;;6221549;28;20181;-66
2021/11/27 01:11:08;;;;;;;22.95;14.73;;;;;;;;;;6224796;28;20533;-66
2021/11/27 01:14:11;;;;;;;22.33;14.60;;;;;;;;;;6234050;28;20463;-65
2021/11/27 01:17:14;;;;;;;22.90;15.05;;;;;;;;;;6232618;28;20053;-66
2021/11/27 01:20:18;;;;;;;21.55;14.70;;;;;;;;;;6234049;28;20069;-66
2021/11/27 01:23:20;;;;;;;22.60;13.85;;;;;;;;;;6231870;28;20048;-66
2021/11/27 01:26:21;;;;;;;21.60;14.50;;;;;;;;;;6230210;28;20037;-66
2021/11/27 01:29:23;;;;;;;23.08;14.60;;;;;;;;;;6238130;28;20048;-66
2021/11/27 01:32:26;;;;;;;22.30;14.75;;;;;;;;;;6215324;28;20049;-65
2021/11/27 01:35:27;;;;;;;26.40;16.05;;;;;;;;;;6229392;28;20038;-66
2021/11/27 01:38:28;;;;;;;21.23;15.25;;;;;;;;;;6235245;28;21345;-66
2021/11/27 01:41:30;;;;;;;23.65;15.80;;;;;;;;;;6226645;28;20466;-66
2021/11/27 01:44:31;;;;;;;22.95;14.63;;;;;;;;;;6236087;28;20041;-65
2021/11/27 01:47:34;;;;;;;24.85;15.43;;;;;;;;;;6217277;28;20114;-69
2021/11/27 01:50:36;;;;;;;161.70;79.82;;;;;;;;;;6216432;28;20038;-69
2021/11/27 01:53:40;;;;;;;234.35;113.80;;;;;;;;;;6236490;28;20045;-69
2021/11/27 01:56:42;;;;;;;83.22;43.38;;;;;;;;;;6232731;28;20042;-69
2021/11/27 01:59:45;;;;;;;124.47;66.53;;;;;;;;;;6240119;28;20115;-68
2021/11/27 02:02:48;;;;;;;39.08;23.42;;;;;;;;;;6214661;28;20128;-65
2021/11/27 02:05:49;;;;;;;30.65;18.02;;;;;;;;;;6226076;28;20140;-65
2021/11/27 02:08:51;;;;;;;29.42;18.08;;;;;;;;;;6241954;28;20547;-65
2021/11/27 02:11:53;;;;;;;31.25;18.88;;;;;;;;;;6230644;28;20054;-65
2021/11/27 02:14:55;;;;;;;33.95;19.30;;;;;;;;;;6236585;28;20136;-65
2021/11/27 02:17:58;;;;;;;29.90;18.35;;;;;;;;;;6218017;28;20546;-65
2021/11/27 02:21:03;;;;;;;34.00;19.30;;;;;;;;;;6231533;28;20041;-65
2021/11/27 02:24:04;;;;;;;29.95;18.05;;;;;;;;;;6235954;28;20136;-65
2021/11/27 02:27:06;;;;;;;30.10;19.58;;;;;;;;;;6228806;28;20041;-66
2021/11/27 02:30:10;;;;;;;31.17;19.58;;;;;;;;;;6241313;28;20445;-65
2021/11/27 02:33:13;;;;;;;34.17;19.73;;;;;;;;;;6227910;28;20044;-65
2021/11/27 02:36:16;;;;;;;31.80;19.35;;;;;;;;;;6234409;28;20061;-66
2021/11/27 02:39:19;;;;;;;29.15;18.58;;;;;;;;;;6235862;28;20057;-65
2021/11/27 02:42:20;;;;;;;31.90;19.50;;;;;;;;;;6232081;28;20057;-65
2021/11/27 02:45:22;;;;;;;33.42;19.75;;;;;;;;;;6226992;28;20045;-66
2021/11/27 02:48:23;;;;;;;33.85;19.52;;;;;;;;;;6229628;28;20136;-65
2021/11/27 02:51:26;;;;;;;31.55;18.80;;;;;;;;;;6227359;28;20501;-65
2021/11/27 02:54:27;;;;;;;29.92;18.83;;;;;;;;;;6230416;28;20176;-66
2021/11/27 02:57:30;;;;;;;28.27;18.83;;;;;;;;;;6215222;28;20087;-66
2021/11/27 03:00:32;;;;;;;34.20;19.95;;;;;;;;;;6223361;28;20117;-65
2021/11/27 03:03:34;;;;;;;27.45;17.98;;;;;;;;;;6228797;28;20052;-65
2021/11/27 03:06:37;;;;;;;32.30;18.80;;;;;;;;;;6220566;28;20066;-66
2021/11/27 03:09:38;;;;;;;30.35;19.27;;;;;;;;;;6236595;28;20408;-65
2021/11/27 03:12:40;;;;;;;32.38;20.05;;;;;;;;;;6234278;28;20054;-65
2021/11/27 03:15:42;;;;;;;30.05;19.80;;;;;;;;;;6231197;28;20176;-66
2021/11/27 03:18:44;;;;;;;33.15;19.77;;;;;;;;;;6233220;28;20647;-65
2021/11/27 03:21:46;;;;;;;29.63;19.35;;;;;;;;;;6228344;28;20061;-66
2021/11/27 03:24:48;;;;;;;29.83;19.33;;;;;;;;;;6236835;28;20041;-65
2021/11/27 03:27:49;;;;;;;29.35;19.70;;;;;;;;;;6232476;28;20146;-66
2021/11/27 03:30:50;;;;;;;29.80;19.42;;;;;;;;;;6226088;28;20119;-66
2021/11/27 03:33:52;;;;;;;32.67;20.00;;;;;;;;;;6240958;28;20048;-66
2021/11/27 03:36:55;;;;;;;32.22;19.90;;;;;;;;;;6237804;28;20048;-65
2021/11/27 03:39:56;;;;;;;31.95;20.50;;;;;;;;;;6241716;28;20176;-66
2021/11/27 03:42:58;;;;;;;30.02;19.55;;;;;;;;;;6231286;28;20083;-65
2021/11/27 03:46:00;;;;;;;32.25;20.13;;;;;;;;;;6233826;28;20064;-66
2021/11/27 03:49:01;;;;;;;27.83;18.92;;;;;;;;;;6239146;28;20037;-66
2021/11/27 03:52:05;;;;;;;30.73;19.20;;;;;;;;;;6226587;28;20054;-66
2021/11/27 03:55:07;;;;;;;30.10;19.70;;;;;;;;;;6243678;28;20396;-65
2021/11/27 03:58:08;;;;;;;30.45;19.85;;;;;;;;;;6228673;28;20496;-66
2021/11/27 04:01:10;;;;;;;30.40;20.15;;;;;;;;;;6231984;28;20128;-65
2021/11/27 04:04:12;;;;;;;34.25;21.27;;;;;;;;;;6238657;28;20048;-65
2021/11/27 04:07:15;;;;;;;32.88;21.23;;;;;;;;;;6234955;28;20179;-66
2021/11/27 04:10:16;;;;;;;32.83;19.88;;;;;;;;;;6237214;28;20056;-66
2021/11/27 04:13:18;;;;;;;31.58;20.38;;;;;;;;;;6236868;28;20517;-65
2021/11/27 04:16:20;;;;;;;30.90;20.70;;;;;;;;;;6226879;28;20076;-65
2021/11/27 04:19:21;;;;;;;32.75;21.10;;;;;;;;;;6236728;28;20045;-65
2021/11/27 04:22:24;;;;;;;36.22;21.60;;;;;;;;;;6228923;28;20041;-65
2021/11/27 04:25:26;;;;;;;33.50;21.95;;;;;;;;;;6238922;28;20132;-65
2021/11/27 04:28:27;;;;;;;38.80;23.08;;;;;;;;;;6246755;28;20042;-65
2021/11/27 04:31:28;;;;;;;33.70;20.73;;;;;;;;;;6228537;28;20041;-66
2021/11/27 04:34:30;;;;;;;36.65;22.40;;;;;;;;;;6234211;28;20176;-65
2021/11/27 04:37:33;;;;;;;38.22;21.90;;;;;;;;;;6228725;28;20165;-66
2021/11/27 04:40:35;;;;;;;35.13;22.98;;;;;;;;;;6240170;28;20094;-66
2021/11/27 04:43:37;;;;;;;35.88;22.05;;;;;;;;;;6242275;28;20107;-65
2021/11/27 04:46:38;;;;;;;36.83;22.35;;;;;;;;;;6224060;28;20051;-65
2021/11/27 04:49:40;;;;;;;35.55;22.73;;;;;;;;;;6237347;28;20179;-66
2021/11/27 04:52:43;;;;;;;35.65;21.70;;;;;;;;;;6229789;28;20124;-65
2021/11/27 04:55:44;;;;;;;32.75;21.02;;;;;;;;;;6232989;28;20188;-66
2021/11/27 04:58:46;;;;;;;34.88;22.40;;;;;;;;;;6242627;28;20081;-65
2021/11/27 05:01:47;;;;;;;36.08;22.20;;;;;;;;;;6230953;28;20072;-65
2021/11/27 05:04:49;;;;;;;35.67;21.80;;;;;;;;;;6238005;28;20057;-65
2021/11/27 05:07:52;;;;;;;34.00;21.77;;;;;;;;;;6229927;28;20167;-65
2021/11/27 05:10:53;;;;;;;35.80;21.98;;;;;;;;;;6236223;28;20621;-66
2021/11/27 05:13:55;;;;;;;34.60;22.45;;;;;;;;;;6240041;28;20510;-65
2021/11/27 05:16:56;;;;;;;34.88;22.45;;;;;;;;;;6228245;28;20412;-65
2021/11/27 05:19:57;;;;;;;37.08;21.95;;;;;;;;;;6233787;28;20088;-66
2021/11/27 05:23:00;;;;;;;37.97;23.02;;;;;;;;;;6229998;28;20037;-65
2021/11/27 05:26:01;;;;;;;34.92;21.77;;;;;;;;;;6229119;28;20057;-65
2021/11/27 05:29:03;;;;;;;33.75;21.23;;;;;;;;;;6231170;28;20144;-65
2021/11/27 05:32:05;;;;;;;33.65;21.00;;;;;;;;;;6226711;28;20180;-64
2021/11/27 05:35:08;;;;;;;35.90;21.75;;;;;;;;;;6238129;28;20143;-64
2021/11/27 05:38:10;;;;;;;37.40;23.05;;;;;;;;;;6234054;28;20050;-65
2021/11/27 05:41:13;;;;;;;38.63;21.90;;;;;;;;;;6227534;28;20054;-64
2021/11/27 05:44:14;;;;;;;35.63;21.45;;;;;;;;;;6243936;28;20042;-64
2021/11/27 05:47:15;;;;;;;35.35;21.77;;;;;;;;;;6223533;28;20187;-64
2021/11/27 05:50:17;;;;;;;36.63;21.25;;;;;;;;;;6232831;28;20408;-65
2021/11/27 05:53:20;;;;;;;36.83;22.85;;;;;;;;;;6237986;28;20049;-64
2021/11/27 05:56:21;;;;;;;37.83;22.55;;;;;;;;;;6230668;28;20389;-64
2021/11/27 05:59:23;;;;;;;37.10;22.05;;;;;;;;;;6241268;28;20124;-65
2021/11/27 06:02:24;;;;;;;36.90;22.15;;;;;;;;;;6215383;28;20060;-65
2021/11/27 06:05:28;;;;;;;39.50;22.52;;;;;;;;;;6231732;28;20053;-65
2021/11/27 06:08:30;;;;;;;;;;;;;;;;;;6241144;28;20413;-64
2021/11/27 06:11:33;;;;;;;36.40;21.45;;;;;;;;;;6228987;28;19929;-65
2021/11/27 06:14:35;;;;;;;38.83;22.58;;;;;;;;;;6236139;28;20064;-65
2021/11/27 06:17:36;;;;;;;35.40;22.42;;;;;;;;;;6229821;28;20061;-64
2021/11/27 06:20:38;;;;;;;37.13;23.17;;;;;;;;;;6228062;28;20212;-65
2021/11/27 06:23:39;;;;;;;37.40;23.60;;;;;;;;;;6240079;28;20055;-64
2021/11/27 06:26:42;;;;;;;39.67;23.80;;;;;;;;;;6230294;28;20054;-64
2021/11/27 06:29:43;;;;;;;38.65;23.20;;;;;;;;;;6241143;28;20078;-65
2021/11/27 06:32:45;;;;;;;41.97;24.33;;;;;;;;;;6225729;28;20089;-64
2021/11/27 06:35:47;;;;;;;41.22;22.77;;;;;;;;;;6228055;28;20114;-65
2021/11/27 06:38:48;;;;;;;41.13;23.23;;;;;;;;;;6242863;28;20048;-64
2021/11/27 06:41:51;;;;;;;39.85;24.25;;;;;;;;;;6230083;28;20045;-65
2021/11/27 06:44:52;;;;;;;39.88;24.17;;;;;;;;;;6240458;28;20049;-65
2021/11/27 06:47:53;;;;;;;34.72;22.13;;;;;;;;;;6214696;28;20168;-65
2021/11/27 06:50:55;;;;;;;34.40;21.35;;;;;;;;;;6228850;28;20045;-65
2021/11/27 06:53:56;;;;;;;37.03;22.30;;;;;;;;;;6234743;28;20096;-64
2021/11/27 06:56:59;;;;;;;38.67;22.70;;;;;;;;;;6228900;28;20493;-65
2021/11/27 07:00:00;;;;;;;37.25;21.98;;;;;;;;;;6237112;28;20392;-64
2021/11/27 07:03:02;;;;;;;38.10;22.58;;;;;;;;;;6222257;28;20071;-65
2021/11/27 07:06:04;;;;;;;36.35;22.50;;;;;;;;;;6228980;28;20057;-65
2021/11/27 07:09:05;;;;;;;39.08;23.42;;;;;;;;;;6241409;28;20512;-65
2021/11/27 07:12:09;;;;;;;37.42;23.05;;;;;;;;;;6227335;28;20132;-65
2021/11/27 07:15:10;;;;;;;35.85;22.25;;;;;;;;;;6233924;28;20175;-64
2021/11/27 07:18:12;;;;;;;36.20;22.30;;;;;;;;;;6223879;28;20470;-65
2021/11/27 07:21:13;;;;;;;37.20;22.95;;;;;;;;;;6226737;28;20047;-65
2021/11/27 07:24:15;;;;;;;35.95;21.65;;;;;;;;;;6236568;28;20453;-65
2021/11/27 07:27:17;;;;;;;31.20;20.95;;;;;;;;;;6225135;28;20124;-65
2021/11/27 07:30:19;;;;;;;33.15;20.52;;;;;;;;;;6230638;28;20144;-65
2021/11/27 07:33:20;;;;;;;30.42;19.42;;;;;;;;;;6229273;28;20143;-65
2021/11/27 07:36:22;;;;;;;33.92;20.67;;;;;;;;;;6224740;28;20404;-65
2021/11/27 07:39:23;;;;;;;31.92;20.10;;;;;;;;;;6241848;28;20126;-64
2021/11/27 07:42:26;;;;;;;30.58;19.67;;;;;;;;;;6227641;28;20129;-65
2021/11/27 07:45:28;;;;;;;30.48;19.13;;;;;;;;;;6229119;28;20072;-64
2021/11/27 07:48:32;;;;;;;35.13;20.60;;;;;;;;;;6233365;28;20049;-65
2021/11/27 07:51:33;;;;;;;31.58;20.10;;;;;;;;;;6223400;28;20049;-64
2021/11/27 07:54:34;;;;;;;32.33;20.70;;;;;;;;;;6236489;28;20067;-65
2021/11/27 07:57:37;;;;;;;31.38;20.48;;;;;;;;;;6240806;28;20136;-65
2021/11/27 08:00:39;;;;;;;34.95;21.15;;;;;;;;;;6226730;28;20127;-65
2021/11/27 08:03:40;;;;;;;30.90;19.83;;;;;;;;;;6238663;28;20160;-65
2021/11/27 08:06:41;;;;;;;30.85;21.08;;;;;;;;;;6233579;28;20187;-65
2021/11/27 08:09:43;;;;;;;32.40;19.92;;;;;;;;;;6242269;28;20188;-65
2021/11/27 08:12:45;;;;;;;31.48;20.67;;;;;;;;;;6231410;28;20041;-65
2021/11/27 08:15:47;;;;;;;32.60;20.55;;;;;;;;;;6224746;28;20053;-67
2021/11/27 08:18:48;;;;;;;35.55;21.60;;;;;;;;;;6238297;28;20192;-65
2021/11/27 08:21:50;;;;;;;31.83;20.80;;;;;;;;;;6232682;28;20474;-65
2021/11/27 08:24:51;;;;;;;35.55;21.63;;;;;;;;;;6241258;28;20133;-65
2021/11/27 08:27:54;;;;;;;35.53;22.30;;;;;;;;;;6227807;28;20046;-65
2021/11/27 08:30:56;;;;;;;34.33;22.73;;;;;;;;;;6221350;28;20049;-65
2021/11/27 08:33:57;;;;;;;33.20;20.67;;;;;;;;;;6234961;28;20089;-65
2021/11/27 08:36:59;;;;;;;36.67;22.05;;;;;;;;;;6221597;28;20776;-65
2021/11/27 08:40:01;;;;;;;35.13;21.80;;;;;;;;;;6234385;28;20137;-67
2021/11/27 08:43:04;;;;;;;32.45;20.63;;;;;;;;;;6226402;28;20049;-64
2021/11/27 08:46:05;;;;;;;34.50;21.85;;;;;;;;;;6223388;28;20740;-63
2021/11/27 08:49:07;;;;;;;36.80;21.70;;;;;;;;;;6230526;28;20088;-63
2021/11/27 08:52:08;;;;;;;32.03;20.73;;;;;;;;;;6220579;28;20197;-63
2021/11/27 08:55:10;;;;;;;31.23;20.67;;;;;;;;;;6232558;28;20081;-63
2021/11/27 08:58:13;;;;;;;29.13;18.80;;;;;;;;;;6237849;28;20172;-63
2021/11/27 09:01:14;;;;;;;28.67;19.23;;;;;;;;;;6234527;28;20103;-64
2021/11/27 09:04:16;;;;;;;26.15;16.88;;;;;;;;;;6241097;28;20041;-65
2021/11/27 09:07:18;;;;;;;21.95;13.63;;;;;;;;;;6241785;28;20580;-65
2021/11/27 09:10:19;;;;;;;24.88;14.57;;;;;;;;;;6237073;28;20037;-65
2021/11/27 09:13:22;;;;;;;18.90;12.75;;;;;;;;;;6250021;28;20141;-66
2021/11/27 09:16:24;;;;;;;24.83;15.05;;;;;;;;;;6223487;28;20041;-66
2021/11/27 09:19:25;;;;;;;23.58;15.45;;;;;;;;;;6240410;28;20137;-66
2021/11/27 09:22:27;;;;;;;24.20;15.43;;;;;;;;;;6229017;28;20128;-66
2021/11/27 09:25:29;;;;;;;21.65;14.65;;;;;;;;;;6238141;28;20095;-67
2021/11/27 09:28:33;;;;;;;21.85;14.60;;;;;;;;;;6238943;28;20396;-66
2021/11/27 09:31:39;;;;;;;20.73;13.98;;;;;;;;;;6223881;28;20046;-66
2021/11/27 09:34:40;;;;;;;20.15;13.85;;;;;;;;;;6221847;28;20053;-66
2021/11/27 09:37:41;;;;;;;18.35;13.70;;;;;;;;;;6234054;28;20183;-66
2021/11/27 09:40:43;;;;;;;20.23;12.48;;;;;;;;;;6226152;28;20041;-66
2021/11/27 09:43:48;;;;;;;20.83;13.13;;;;;;;;;;6241204;28;20132;-66
2021/11/27 09:46:49;;;;;;;19.55;12.98;;;;;;;;;;6220333;28;20114;-66
2021/11/27 09:49:51;;;;;;;22.58;13.20;;;;;;;;;;6238818;28;20926;-66
2021/11/27 09:52:52;;;;;;;17.35;13.10;;;;;;;;;;6223897;28;20049;-66
2021/11/27 09:55:54;;;;;;;19.00;13.30;;;;;;;;;;6239931;28;20136;-66
2021/11/27 09:58:57;;;;;;;19.45;13.85;;;;;;;;;;6246110;28;20056;-66
2021/11/27 10:02:00;;;;;;;20.13;14.27;;;;;;;;;;6218110;28;20037;-64
2021/11/27 10:05:03;;;;;;;18.33;13.13;;;;;;;;;;6238040;28;20052;-65
2021/11/27 10:08:05;;;;;;;20.45;13.52;;;;;;;;;;6234771;28;20049;-66
2021/11/27 10:11:06;;;;;;;18.40;13.13;;;;;;;;;;6234396;28;20099;-67
2021/11/27 10:14:09;;;;;;;21.33;14.02;;;;;;;;;;6230648;28;20053;-69
2021/11/27 10:17:13;;;;;;;20.13;13.90;;;;;;;;;;6215193;28;20053;-70
2021/11/27 10:20:16;;;;;;;20.80;14.27;;;;;;;;;;6236457;28;20045;-68
2021/11/27 10:23:30;;;;;;;20.10;13.23;;;;;;;;;;6228007;28;20074;-68
2021/11/27 10:26:34;;;;;;;17.65;12.27;;;;;;;;;;6227504;28;20180;-68
2021/11/27 10:29:36;;;;;;;18.20;12.45;;;;;;;;;;6239952;28;20049;-69
2021/11/27 10:32:39;;;;;;;16.63;12.10;;;;;;;;;;6208307;28;20041;-69
2021/11/27 10:36:05;;;;;;;17.30;12.30;;;;;;;;;;6225337;28;20195;-70
2021/11/27 10:39:07;;;;;;;20.67;13.48;;;;;;;;;;6224246;28;20042;-68
2021/11/27 10:42:10;;;;;;;19.50;13.82;;;;;;;;;;6226543;28;20046;-68
2021/11/27 10:45:15;;;;;;;18.55;13.10;;;;;;;;;;6230491;28;20045;-69
2021/11/27 10:48:18;;;;;;;18.20;12.77;;;;;;;;;;6224351;28;20107;-68
2021/11/27 10:51:20;;;;;;;18.48;12.73;;;;;;;;;;6225881;28;20053;-68
2021/11/27 10:54:21;;;;;;;17.45;13.05;;;;;;;;;;6230238;28;20061;-67
2021/11/27 10:57:30;;;;;;;16.70;12.10;;;;;;;;;;6222476;28;20045;-66
2021/11/27 11:00:37;;;;;;;17.58;13.13;;;;;;;;;;6223307;28;20116;-69
2021/11/27 11:03:39;;;;;;;17.83;13.48;;;;;;;;;;6227145;28;20052;-67
2021/11/27 11:06:40;;;;;;;17.75;13.45;;;;;;;;;;6224577;28;20136;-67
2021/11/27 11:09:56;;;;;;;16.92;12.82;;;;;;;;;;6241117;28;20049;-67
2021/11/27 11:13:01;;;;;;;18.25;12.75;;;;;;;;;;6230709;28;20438;-67
2021/11/27 11:16:09;;;;;;;17.73;12.52;;;;;;;;;;6219674;28;20983;-67
2021/11/27 11:19:14;;;;;;;18.35;13.18;;;;;;;;;;6234284;28;20053;-68
2021/11/27 11:22:16;;;;;;;18.63;12.98;;;;;;;;;;6217374;28;20056;-66
2021/11/27 11:25:18;;;;;;;17.92;12.85;;;;;;;;;;6232009;28;20441;-68
2021/11/27 11:28:20;;;;;;;18.60;13.05;;;;;;;;;;6236849;28;20224;-66
2021/11/27 11:31:24;;;;;;;18.05;13.25;;;;;;;;;;6228328;28;20136;-68
2021/11/27 11:34:26;;;;;;;18.33;12.95;;;;;;;;;;6239385;28;20046;-68
2021/11/27 11:37:27;;;;;;;17.67;12.88;;;;;;;;;;6231400;28;20102;-66
2021/11/27 11:40:30;;;;;;;19.00;13.50;;;;;;;;;;6239569;28;20124;-66
2021/11/27 11:43:31;;;;;;;20.38;13.77;;;;;;;;;;6245704;28;20049;-66
2021/11/27 11:46:37;;;;;;;16.05;12.10;;;;;;;;;;6234243;28;20447;-66
2021/11/27 11:49:38;;;;;;;18.05;13.27;;;;;;;;;;6244587;28;20045;-66
2021/11/27 11:52:42;;;;;;;17.65;12.93;;;;;;;;;;6229894;28;20615;-66
2021/11/27 11:55:44;;;;;;;;;;;;;;;;;;6231935;28;20072;-68
2021/11/27 11:58:47;;;;;;;16.55;12.35;;;;;;;;;;6255641;28;19921;-66
2021/11/27 12:02:03;;;;;;;19.40;13.27;;;;;;;;;;6228157;28;20073;-68
2021/11/27 12:05:12;;;;;;;16.52;12.15;;;;;;;;;;6237190;28;20046;-69
2021/11/27 12:08:14;;;;;;;18.80;14.18;;;;;;;;;;6233754;28;20041;-66
2021/11/27 12:11:30;;;;;;;18.13;14.25;;;;;;;;;;6231813;28;20057;-66
2021/11/27 12:14:50;;;;;;;18.35;12.93;;;;;;;;;;6247662;28;20060;-66
2021/11/27 12:18:05;;;;;;;20.48;14.80;;;;;;;;;;6221193;28;20128;-66
2021/11/27 12:21:14;;;;;;;20.00;13.68;;;;;;;;;;6223154;28;20057;-66
2021/11/27 12:24:22;;;;;;;19.52;13.95;;;;;;;;;;6239345;28;20076;-66
2021/11/27 12:27:23;;;;;;;16.67;12.85;;;;;;;;;;6230279;28;20045;-68
2021/11/27 12:30:25;;;;;;;20.40;13.80;;;;;;;;;;6233504;28;20057;-66
2021/11/27 12:33:58;;;;;;;19.20;14.63;;;;;;;;;;6235238;28;20136;-66
2021/11/27 12:37:00;;;;;;;18.75;13.77;;;;;;;;;;6178548;28;20200;-65
2021/11/27 12:40:02;;;;;;;20.40;14.52;;;;;;;;;;6233335;28;20138;-68
2021/11/27 12:43:07;;;;;;;23.20;15.05;;;;;;;;;;6229742;28;20144;-68
2021/11/27 12:46:29;;;;;;;23.45;14.52;;;;;;;;;;6223700;28;20067;-67
2021/11/27 12:49:49;;;;;;;20.90;13.85;;;;;;;;;;6239901;28;20053;-67
2021/11/27 12:52:52;;;;;;;20.10;13.80;;;;;;;;;;6213221;28;20045;-67
2021/11/27 12:55:59;;;;;;;20.20;13.88;;;;;;;;;;6224722;28;20146;-67
2021/11/27 12:59:00;;;;;;;20.65;14.25;;;;;;;;;;6257274;28;20052;-66
2021/11/27 13:02:01;;;;;;;20.63;14.40;;;;;;;;;;6224129;28;20045;-66
2021/11/27 13:05:03;;;;;;;22.77;14.52;;;;;;;;;;6236649;28;20049;-66
2021/11/27 13:08:07;;;;;;;22.33;14.57;;;;;;;;;;6228234;28;20049;-67
2021/11/27 13:11:08;;;;;;;;;;;;;;;;;;6233366;28;20049;-66
2021/11/27 13:14:21;;;;;;;24.02;14.30;;;;;;;;;;6244312;28;19925;-66
2021/11/27 13:17:24;;;;;;;24.35;15.70;;;;;;;;;;6230931;28;20041;-66
2021/11/27 13:20:38;;;;;;;23.42;14.13;;;;;;;;;;6229359;28;20037;-65
2021/11/27 13:23:42;;;;;;;21.38;14.38;;;;;;;;;;6235935;28;20102;-67
2021/11/27 13:26:43;;;;;;;20.17;14.57;;;;;;;;;;6225360;28;20448;-67
2021/11/27 13:29:45;;;;;;;23.63;15.07;;;;;;;;;;6249880;28;20045;-66
2021/11/27 13:32:48;;;;;;;24.05;15.20;;;;;;;;;;6226803;28;20057;-64
2021/11/27 13:35:49;;;;;;;21.90;14.98;;;;;;;;;;6232571;28;20705;-68
2021/11/27 13:38:53;;;;;;;24.05;15.23;;;;;;;;;;6246321;28;20168;-66
2021/11/27 13:42:08;;;;;;;23.35;15.15;;;;;;;;;;6228970;28;20053;-66
2021/11/27 13:45:10;;;;;;;25.50;15.57;;;;;;;;;;6243769;28;20040;-68
2021/11/27 13:48:11;;;;;;;24.02;15.75;;;;;;;;;;6235455;28;20049;-67
2021/11/27 13:51:19;;;;;;;22.67;15.27;;;;;;;;;;6238344;28;20523;-67
2021/11/27 13:54:22;;;;;;;24.65;16.00;;;;;;;;;;6240918;28;21545;-66
2021/11/27 13:57:24;;;;;;;23.65;16.05;;;;;;;;;;6236509;28;20037;-67
2021/11/27 14:00:26;;;;;;;26.20;16.30;;;;;;;;;;6236108;28;20041;-66
2021/11/27 14:03:30;;;;;;;25.23;16.60;;;;;;;;;;6238585;28;20488;-66
2021/11/27 14:06:32;;;;;;;;;;;;;;;;;;6235681;28;20040;-68
2021/11/27 14:09:44;;;;;;;23.30;15.02;;;;;;;;;;6241340;28;20009;-66
2021/11/27 14:12:48;;;;;;;25.15;17.33;;;;;;;;;;6227420;28;20140;-66
2021/11/27 14:15:50;;;;;;;23.42;15.80;;;;;;;;;;6227729;28;20052;-66
2021/11/27 14:18:51;;;;;;;26.30;17.02;;;;;;;;;;6240181;28;20065;-66
2021/11/27 14:22:03;;;;;;;25.27;16.10;;;;;;;;;;6225409;28;20049;-66
2021/11/27 14:25:10;;;;;;;24.40;15.57;;;;;;;;;;6233833;28;20090;-67
2021/11/27 14:28:12;;;;;;;26.65;15.90;;;;;;;;;;6231439;28;20508;-66
2021/11/27 14:31:15;;;;;;;23.85;15.93;;;;;;;;;;6218589;28;20045;-66
2021/11/27 14:34:19;;;;;;;25.13;16.23;;;;;;;;;;6231658;28;20057;-67
2021/11/27 14:37:20;;;;;;;26.00;16.63;;;;;;;;;;6229797;28;20053;-67
2021/11/27 14:40:24;;;;;;;29.42;17.27;;;;;;;;;;6238657;28;20040;-68
2021/11/27 14:43:25;;;;;;;27.00;17.23;;;;;;;;;;6243280;28;20099;-66
2021/11/27 14:46:27;;;;;;;25.90;16.33;;;;;;;;;;6229628;28;20047;-66
2021/11/27 14:49:31;;;;;;;23.73;15.95;;;;;;;;;;6242904;28;20131;-66
2021/11/27 14:52:32;;;;;;;24.48;17.10;;;;;;;;;;6219664;28;20037;-65
2021/11/27 14:55:35;;;;;;;26.90;18.10;;;;;;;;;;6227373;28;20045;-65
2021/11/27 14:58:37;;;;;;;30.63;18.67;;;;;;;;;;6246810;28;20087;-66
2021/11/27 15:01:38;;;;;;;30.15;17.52;;;;;;;;;;6226799;28;20148;-65
2021/11/27 15:04:40;;;;;;;29.90;18.73;;;;;;;;;;6239325;28;20132;-65
2021/11/27 15:07:41;;;;;;;28.23;17.85;;;;;;;;;;6234809;28;20206;-66
2021/11/27 15:10:44;;;;;;;27.00;16.95;;;;;;;;;;6227362;28;20875;-66
2021/11/27 15:13:45;;;;;;;26.77;18.50;;;;;;;;;;6240681;28;20049;-65
2021/11/27 15:16:48;;;;;;;29.23;18.00;;;;;;;;;;6221293;28;20777;-65
2021/11/27 15:19:50;;;;;;;27.95;18.20;;;;;;;;;;6229485;28;20045;-67
2021/11/27 15:22:51;;;;;;;31.27;18.42;;;;;;;;;;6216816;28;20125;-66
2021/11/27 15:25:54;;;;;;;26.33;17.23;;;;;;;;;;6230059;28;20396;-66
2021/11/27 15:28:56;;;;;;;27.73;18.60;;;;;;;;;;6243340;28;20132;-65
2021/11/27 15:32:00;;;;;;;26.25;17.60;;;;;;;;;;6221167;28;20434;-66
2021/11/27 15:35:01;;;;;;;;;;;;;;;;;;6247127;28;20492;-65
2021/11/27 15:38:03;;;;;;;29.50;17.88;;;;;;;;;;6226102;28;19978;-66
2021/11/27 15:41:06;;;;;;;27.02;17.80;;;;;;;;;;6231427;28;20091;-66
2021/11/27 15:44:07;;;;;;;27.38;18.35;;;;;;;;;;6236899;28;21651;-67
2021/11/27 15:47:09;;;;;;;31.67;18.42;;;;;;;;;;6229704;28;20059;-65
2021/11/27 15:50:10;;;;;;;29.48;19.48;;;;;;;;;;6232677;28;20071;-67
2021/11/27 15:53:11;;;;;;;26.98;18.25;;;;;;;;;;6236373;28;20073;-66
2021/11/27 15:56:14;;;;;;;31.42;18.63;;;;;;;;;;6233722;28;20098;-66
2021/11/27 15:59:17;;;;;;;31.80;19.15;;;;;;;;;;6252409;28;20045;-66
2021/11/27 16:02:19;;;;;;;32.08;19.83;;;;;;;;;;6225253;28;20497;-65
2021/11/27 16:05:20;;;;;;;29.40;18.17;;;;;;;;;;6235202;28;20485;-67
2021/11/27 16:08:23;;;;;;;31.20;19.55;;;;;;;;;;6240565;28;20044;-67
2021/11/27 16:11:27;;;;;;;30.00;19.23;;;;;;;;;;6241689;28;20528;-65
2021/11/27 16:14:28;;;;;;;29.15;19.77;;;;;;;;;;6222265;28;20036;-65
2021/11/27 16:17:30;;;;;;;28.83;18.98;;;;;;;;;;6229598;28;20073;-65
2021/11/27 16:20:31;;;;;;;27.88;18.25;;;;;;;;;;6231772;28;20034;-65
2021/11/27 16:23:33;;;;;;;31.95;18.95;;;;;;;;;;6255218;28;20203;-66
2021/11/27 16:26:36;;;;;;;26.77;18.20;;;;;;;;;;6236490;28;20045;-65
2021/11/27 16:29:38;;;;;;;29.63;19.55;;;;;;;;;;6244115;28;20127;-65
2021/11/27 16:32:40;;;;;;;32.97;20.15;;;;;;;;;;6217872;28;20060;-65
2021/11/27 16:35:42;;;;;;;34.05;20.35;;;;;;;;;;6236101;28;20180;-65
2021/11/27 16:38:43;;;;;;;29.42;19.42;;;;;;;;;;6247891;28;20103;-66
2021/11/27 16:41:46;;;;;;;35.03;21.20;;;;;;;;;;6236363;28;20121;-66
2021/11/27 16:44:48;;;;;;;33.42;20.48;;;;;;;;;;6251700;28;20128;-65
2021/11/27 16:47:49;;;;;;;36.15;21.40;;;;;;;;;;6225763;28;20578;-66
2021/11/27 16:50:50;;;;;;;36.55;21.45;;;;;;;;;;6237459;28;20053;-64
2021/11/27 16:53:52;;;;;;;35.00;21.00;;;;;;;;;;6250244;28;20057;-65
2021/11/27 16:56:55;;;;;;;33.88;21.80;;;;;;;;;;6223976;28;20147;-66
2021/11/27 16:59:57;;;;;;;33.90;21.95;;;;;;;;;;6246400;28;20041;-65
2021/11/27 17:03:05;;;;;;;36.83;21.20;;;;;;;;;;6224840;28;20063;-65
2021/11/27 17:06:06;;;;;;;33.92;21.30;;;;;;;;;;6234876;28;20053;-66
2021/11/27 17:09:08;;;;;;;34.70;21.42;;;;;;;;;;6247298;28;20098;-65
2021/11/27 17:12:11;;;;;;;38.45;21.60;;;;;;;;;;6231009;28;20080;-64
2021/11/27 17:15:12;;;;;;;36.75;22.10;;;;;;;;;;6239011;28;20128;-67
2021/11/27 17:18:15;;;;;;;34.80;21.85;;;;;;;;;;6231172;28;20184;-66
2021/11/27 17:21:16;;;;;;;34.53;21.63;;;;;;;;;;6224528;28;20056;-65
2021/11/27 17:24:22;;;;;;;32.85;21.10;;;;;;;;;;6245173;28;20636;-65
2021/11/27 17:27:24;;;;;;;37.75;21.52;;;;;;;;;;6222260;28;20065;-67
2021/11/27 17:30:26;;;;;;;37.70;22.00;;;;;;;;;;6227649;28;20037;-67
2021/11/27 17:33:27;;;;;;;36.65;22.17;;;;;;;;;;6238433;28;20048;-65
2021/11/27 17:36:29;;;;;;;36.97;22.33;;;;;;;;;;6238410;28;20068;-64
2021/11/27 17:39:31;;;;;;;36.60;20.63;;;;;;;;;;6237647;28;20171;-64
2021/11/27 17:42:34;;;;;;;34.55;21.50;;;;;;;;;;6243900;28;20045;-64
2021/11/27 17:45:35;;;;;;;34.15;20.40;;;;;;;;;;6233658;28;20891;-64